createdAt,value
2016-11-24T00:01:11.493Z,0
2016-11-24T00:02:23.909Z,0
2016-11-24T00:04:08.171Z,0
2016-11-24T00:05:21.154Z,0
2016-11-24T00:07:05.245Z,0
2016-11-24T00:08:18.214Z,0
2016-11-24T00:09:30.783Z,0
2016-11-24T00:10:43.784Z,0
2016-11-24T00:11:57.217Z,0
2016-11-24T00:13:10.177Z,0
2016-11-24T00:14:23.213Z,0
2016-11-24T00:15:35.213Z,0
2016-11-24T00:16:48.190Z,0
2016-11-24T00:18:01.698Z,0
2016-11-24T00:19:14.617Z,0
2016-11-24T00:20:27.797Z,0
2016-11-24T00:21:40.866Z,0
2016-11-24T00:22:54.377Z,0
2016-11-24T00:24:07.881Z,0
2016-11-24T00:25:20.351Z,0
2016-11-24T00:26:33.808Z,0
2016-11-24T00:28:17.323Z,0
2016-11-24T00:29:30.289Z,0
2016-11-24T00:30:43.361Z,0
2016-11-24T00:31:55.794Z,0
2016-11-24T00:33:09.307Z,0
2016-11-24T00:34:21.182Z,0
2016-11-24T00:35:33.629Z,0
2016-11-24T00:36:46.154Z,0
2016-11-24T00:37:58.034Z,0
2016-11-24T00:39:11.033Z,0
2016-11-24T00:40:23.474Z,0
2016-11-24T00:41:36.550Z,0
2016-11-24T00:42:49.496Z,0
2016-11-24T00:44:02.485Z,0
2016-11-24T00:45:15.432Z,0
2016-11-24T00:46:28.976Z,0
2016-11-24T00:47:41.420Z,0
2016-11-24T00:48:54.871Z,0
2016-11-24T00:50:06.763Z,0
2016-11-24T00:51:20.311Z,0
2016-11-24T00:52:34.070Z,0
2016-11-24T00:53:46.520Z,0
2016-11-24T00:54:58.955Z,0
2016-11-24T00:56:12.386Z,0
2016-11-24T00:57:25.367Z,0
2016-11-24T00:58:38.885Z,0
2016-11-24T00:59:52.426Z,0
2016-11-24T01:01:04.371Z,0
2016-11-24T01:02:16.329Z,0
2016-11-24T01:03:29.369Z,0
2016-11-24T01:04:42.363Z,0
2016-11-24T01:05:54.820Z,0
2016-11-24T01:07:08.276Z,0
2016-11-24T01:08:20.719Z,0
2016-11-24T01:09:33.107Z,0
2016-11-24T01:11:17.715Z,0
2016-11-24T01:12:30.695Z,0
2016-11-24T01:13:43.717Z,0
2016-11-24T01:14:56.209Z,0
2016-11-24T01:16:09.724Z,0
2016-11-24T01:17:22.751Z,0
2016-11-24T01:19:07.435Z,0
2016-11-24T01:20:20.389Z,0
2016-11-24T01:21:32.791Z,0
2016-11-24T01:22:44.653Z,0
2016-11-24T01:23:56.539Z,0
2016-11-24T01:25:08.602Z,0
2016-11-24T01:26:20.485Z,0
2016-11-24T01:27:32.371Z,0
2016-11-24T01:28:44.786Z,0
2016-11-24T01:29:58.248Z,0
2016-11-24T01:31:11.187Z,0
2016-11-24T01:32:24.121Z,0
2016-11-24T01:33:36.511Z,0
2016-11-24T01:34:50.007Z,0
2016-11-24T01:36:02.563Z,0
2016-11-24T01:37:14.984Z,0
2016-11-24T01:38:26.899Z,0
2016-11-24T01:39:39.881Z,0
2016-11-24T01:40:52.811Z,0
2016-11-24T01:42:05.279Z,0
2016-11-24T01:43:17.745Z,0
2016-11-24T01:44:30.291Z,0
2016-11-24T01:45:42.735Z,0
2016-11-24T01:47:26.435Z,0
2016-11-24T01:48:38.871Z,0
2016-11-24T01:49:51.786Z,0
2016-11-24T01:51:04.195Z,0
2016-11-24T01:52:16.704Z,0
2016-11-24T01:53:29.639Z,0
2016-11-24T01:54:43.131Z,0
2016-11-24T01:55:56.098Z,0
2016-11-24T01:57:09.164Z,0
2016-11-24T01:58:22.108Z,0
2016-11-24T01:59:48.373Z,0
2016-11-24T02:01:01.821Z,0
2016-11-24T02:02:14.966Z,0
2016-11-24T02:03:28.558Z,0
2016-11-24T02:04:41.533Z,0
2016-11-24T02:05:54.519Z,0
2016-11-24T02:07:39.251Z,0
2016-11-24T02:08:52.176Z,0
2016-11-24T02:10:05.624Z,0
2016-11-24T02:11:16.963Z,0
2016-11-24T02:12:29.454Z,0
2016-11-24T02:13:42.640Z,0
2016-11-24T02:14:56.080Z,0
2016-11-24T02:16:09.108Z,0
2016-11-24T02:17:22.572Z,0
2016-11-24T02:18:35.685Z,0
2016-11-24T02:19:48.727Z,0
2016-11-24T02:21:01.152Z,0
2016-11-24T02:22:14.123Z,0
2016-11-24T02:23:27.058Z,0
2016-11-24T02:24:40.573Z,0
2016-11-24T02:25:53.602Z,0
2016-11-24T02:27:06.606Z,0
2016-11-24T02:28:19.579Z,0
2016-11-24T02:29:32.755Z,0
2016-11-24T02:30:45.731Z,0
2016-11-24T02:31:58.209Z,0
2016-11-24T02:33:11.167Z,0
2016-11-24T02:34:24.781Z,0
2016-11-24T02:35:38.366Z,0
2016-11-24T02:36:51.840Z,0
2016-11-24T02:38:05.307Z,0
2016-11-24T02:39:18.832Z,0
2016-11-24T02:40:32.395Z,0
2016-11-24T02:41:45.297Z,0
2016-11-24T02:44:00.537Z,0
2016-11-24T02:45:13.556Z,0
2016-11-24T02:46:26.179Z,0
2016-11-24T02:47:39.170Z,0
2016-11-24T02:48:51.652Z,0
2016-11-24T02:50:04.642Z,0
2016-11-24T02:51:17.135Z,0
2016-11-24T02:53:01.260Z,0
2016-11-24T02:54:13.652Z,0
2016-11-24T02:55:26.615Z,0
2016-11-24T02:56:39.671Z,0
2016-11-24T02:57:53.117Z,0
2016-11-24T02:59:05.004Z,0
2016-11-24T03:00:17.477Z,0
2016-11-24T03:01:30.597Z,0
2016-11-24T03:02:42.493Z,0
2016-11-24T03:03:54.422Z,0
2016-11-24T03:05:07.358Z,0
2016-11-24T03:06:20.431Z,0
2016-11-24T03:08:30.474Z,0
2016-11-24T03:09:41.983Z,0
2016-11-24T03:10:55.005Z,0
2016-11-24T03:12:07.500Z,0
2016-11-24T03:13:20.620Z,0
2016-11-24T03:14:33.123Z,0
2016-11-24T03:15:46.785Z,0
2016-11-24T03:18:56.196Z,0
2016-11-24T03:20:09.216Z,0
2016-11-24T03:21:21.721Z,0
2016-11-24T03:22:34.224Z,0
2016-11-24T03:23:47.330Z,0
2016-11-24T03:24:59.774Z,0
2016-11-24T03:26:12.179Z,0
2016-11-24T03:29:09.385Z,0
2016-11-24T03:30:22.428Z,0
2016-11-24T03:31:33.871Z,0
2016-11-24T03:32:47.666Z,0
2016-11-24T03:34:00.652Z,0
2016-11-24T03:35:13.200Z,0
2016-11-24T03:36:24.645Z,0
2016-11-24T03:37:37.873Z,0
2016-11-24T03:38:51.011Z,0
2016-11-24T03:40:04.317Z,0
2016-11-24T03:42:59.417Z,0
2016-11-24T03:44:12.446Z,0
2016-11-24T03:45:25.037Z,0
2016-11-24T03:46:38.634Z,0
2016-11-24T03:47:51.727Z,0
2016-11-24T03:49:04.197Z,0
2016-11-24T03:50:17.233Z,0
2016-11-24T03:51:30.796Z,0
2016-11-24T03:52:43.309Z,0
2016-11-24T03:53:56.346Z,0
2016-11-24T03:55:09.451Z,0
2016-11-24T03:56:23.158Z,0
2016-11-24T03:57:36.176Z,0
2016-11-24T03:58:49.182Z,0
2016-11-24T04:00:01.174Z,0
2016-11-24T04:01:13.621Z,0
2016-11-24T04:02:26.747Z,0
2016-11-24T04:03:39.221Z,0
2016-11-24T04:04:51.728Z,0
2016-11-24T04:06:04.192Z,0
2016-11-24T04:07:16.948Z,0
2016-11-24T04:08:30.468Z,0
2016-11-24T04:09:44.136Z,0
2016-11-24T04:10:57.103Z,0
2016-11-24T04:12:09.681Z,0
2016-11-24T04:13:23.252Z,0
2016-11-24T04:14:36.273Z,0
2016-11-24T04:15:49.189Z,0
2016-11-24T04:17:02.742Z,0
2016-11-24T04:18:15.378Z,0
2016-11-24T04:19:28.428Z,0
2016-11-24T04:20:41.449Z,0
2016-11-24T04:21:54.437Z,0
2016-11-24T04:23:08.116Z,0
2016-11-24T04:24:52.273Z,0
2016-11-24T04:26:05.786Z,0
2016-11-24T04:27:18.815Z,0
2016-11-24T04:28:32.468Z,0
2016-11-24T04:29:44.941Z,0
2016-11-24T04:30:57.982Z,0
2016-11-24T04:32:11.582Z,0
2016-11-24T04:33:24.049Z,0
2016-11-24T04:34:36.526Z,0
2016-11-24T04:35:49.043Z,0
2016-11-24T04:37:02.043Z,0
2016-11-24T04:38:15.077Z,0
2016-11-24T04:39:28.657Z,0
2016-11-24T04:40:41.213Z,0
2016-11-24T04:42:25.367Z,0
2016-11-24T04:43:38.912Z,0
2016-11-24T04:44:52.779Z,0
2016-11-24T04:46:05.222Z,0
2016-11-24T04:47:18.765Z,0
2016-11-24T04:48:30.779Z,0
2016-11-24T04:49:43.791Z,0
2016-11-24T04:51:26.862Z,0
2016-11-24T04:52:39.909Z,0
2016-11-24T04:53:51.904Z,0
2016-11-24T04:55:04.620Z,0
2016-11-24T04:56:17.141Z,0
2016-11-24T04:57:29.632Z,0
2016-11-24T04:58:43.176Z,0
2016-11-24T04:59:55.646Z,0
2016-11-24T05:01:09.360Z,0
2016-11-24T05:02:21.910Z,0
2016-11-24T05:03:35.508Z,0
2016-11-24T05:04:47.455Z,0
2016-11-24T05:06:01.139Z,0
2016-11-24T05:07:14.146Z,0
2016-11-24T05:08:26.648Z,0
2016-11-24T05:09:39.683Z,0
2016-11-24T05:10:53.308Z,0
2016-11-24T05:12:05.786Z,0
2016-11-24T05:13:19.284Z,0
2016-11-24T05:14:32.263Z,0
2016-11-24T05:16:17.063Z,0
2016-11-24T05:17:30.127Z,0
2016-11-24T05:18:43.149Z,0
2016-11-24T05:19:56.172Z,0
2016-11-24T05:21:09.795Z,0
2016-11-24T05:22:23.361Z,0
2016-11-24T05:23:35.881Z,0
2016-11-24T05:24:47.870Z,0
2016-11-24T05:25:59.797Z,0
2016-11-24T05:27:13.533Z,0
2016-11-24T05:28:26.622Z,0
2016-11-24T05:29:39.136Z,0
2016-11-24T05:30:51.581Z,0
2016-11-24T05:32:05.064Z,0
2016-11-24T05:33:18.624Z,0
2016-11-24T05:34:31.160Z,0
2016-11-24T05:35:44.161Z,0
2016-11-24T05:36:57.193Z,0
2016-11-24T05:38:10.341Z,0
2016-11-24T05:39:22.855Z,0
2016-11-24T05:40:35.890Z,0
2016-11-24T05:41:48.366Z,0
2016-11-24T05:43:32.633Z,0
2016-11-24T05:44:46.244Z,0
2016-11-24T05:45:58.834Z,0
2016-11-24T05:47:43.512Z,0
2016-11-24T05:48:57.226Z,0
2016-11-24T05:50:09.752Z,0
2016-11-24T05:51:23.375Z,0
2016-11-24T05:52:36.992Z,0
2016-11-24T05:53:50.562Z,0
2016-11-24T05:55:01.994Z,0
2016-11-24T05:56:15.031Z,0
2016-11-24T05:57:26.416Z,0
2016-11-24T05:58:38.886Z,0
2016-11-24T05:59:52.573Z,0
2016-11-24T06:01:05.606Z,0
2016-11-24T06:02:19.212Z,0
2016-11-24T06:03:31.249Z,0
2016-11-24T06:04:44.717Z,0
2016-11-24T06:05:58.250Z,0
2016-11-24T06:07:11.254Z,0
2016-11-24T06:08:24.226Z,0
2016-11-24T06:09:37.286Z,0
2016-11-24T06:11:22.089Z,0
2016-11-24T06:12:34.607Z,0
2016-11-24T06:13:48.204Z,0
2016-11-24T06:15:01.227Z,0
2016-11-24T06:16:13.816Z,0
2016-11-24T06:17:26.854Z,0
2016-11-24T06:18:40.482Z,0
2016-11-24T06:19:52.460Z,0
2016-11-24T06:21:06.193Z,0
2016-11-24T06:22:18.170Z,0
2016-11-24T06:23:31.207Z,0
2016-11-24T06:24:43.693Z,0
2016-11-24T06:25:55.725Z,0
2016-11-24T06:27:09.000Z,0
2016-11-24T06:28:22.611Z,0
2016-11-24T06:29:35.646Z,0
2016-11-24T06:30:48.702Z,0
2016-11-24T06:32:00.196Z,0
2016-11-24T06:33:44.393Z,0
2016-11-24T06:34:57.361Z,0
2016-11-24T06:36:10.954Z,0
2016-11-24T06:37:24.211Z,0
2016-11-24T06:38:37.269Z,0
2016-11-24T06:39:50.832Z,0
2016-11-24T06:41:03.318Z,0
2016-11-24T06:42:15.909Z,0
2016-11-24T06:43:28.889Z,0
2016-11-24T06:44:40.891Z,0
2016-11-24T06:46:25.082Z,0
2016-11-24T06:47:38.179Z,0
2016-11-24T06:48:51.199Z,0
2016-11-24T06:50:04.838Z,0
2016-11-24T06:51:17.906Z,0
2016-11-24T06:52:30.592Z,0
2016-11-24T06:53:43.637Z,0
2016-11-24T06:54:56.715Z,0
2016-11-24T06:56:09.709Z,0
2016-11-24T06:57:22.215Z,0
2016-11-24T06:58:35.379Z,0
2016-11-24T06:59:48.947Z,0
2016-11-24T07:01:01.462Z,0
2016-11-24T07:02:14.077Z,0
2016-11-24T07:03:27.703Z,0
2016-11-24T07:04:40.207Z,0
2016-11-24T07:05:52.820Z,0
2016-11-24T07:07:06.415Z,0
2016-11-24T07:08:18.908Z,0
2016-11-24T07:09:32.518Z,0
2016-11-24T07:10:44.481Z,0
2016-11-24T07:11:56.488Z,0
2016-11-24T07:13:09.518Z,0
2016-11-24T07:14:22.535Z,0
2016-11-24T07:15:35.619Z,0
2016-11-24T07:16:48.672Z,0
2016-11-24T07:18:00.619Z,0
2016-11-24T07:19:13.650Z,0
2016-11-24T07:20:26.709Z,0
2016-11-24T07:21:40.228Z,0
2016-11-24T07:22:52.721Z,0
2016-11-24T07:24:06.219Z,0
2016-11-24T07:25:19.705Z,0
2016-11-24T07:26:32.704Z,0
2016-11-24T07:27:46.226Z,0
2016-11-24T07:28:59.716Z,0
2016-11-24T07:30:13.258Z,0
2016-11-24T07:33:40.991Z,0
2016-11-24T07:34:54.545Z,0
2016-11-24T07:36:38.263Z,0
2016-11-24T07:37:51.344Z,0
2016-11-24T07:39:04.359Z,0
2016-11-24T07:40:16.320Z,0
2016-11-24T07:41:29.340Z,0
2016-11-24T07:42:42.492Z,0
2016-11-24T07:43:54.946Z,0
2016-11-24T07:45:07.978Z,4
2016-11-24T07:46:20.473Z,0
2016-11-24T07:47:33.021Z,4
2016-11-24T07:48:46.552Z,4
2016-11-24T07:49:59.533Z,8
2016-11-24T07:51:12.535Z,8
2016-11-24T07:52:25.976Z,8
2016-11-24T07:53:38.981Z,16
2016-11-24T07:55:23.623Z,20
2016-11-24T07:56:37.158Z,24
2016-11-24T07:57:50.328Z,32
2016-11-24T07:59:03.341Z,44
2016-11-24T08:00:15.271Z,56
2016-11-24T08:01:28.805Z,68
2016-11-24T08:02:41.783Z,84
2016-11-24T08:03:55.387Z,100
2016-11-24T08:05:08.321Z,124
2016-11-24T08:06:20.728Z,148
2016-11-24T08:07:33.699Z,176
2016-11-24T08:08:46.741Z,212
2016-11-24T08:09:59.203Z,248
2016-11-24T08:11:42.749Z,312
2016-11-24T08:12:56.363Z,356
2016-11-24T08:14:09.574Z,408
2016-11-24T08:15:22.129Z,460
2016-11-24T08:16:35.660Z,516
2016-11-24T08:17:48.128Z,580
2016-11-24T08:19:00.095Z,648
2016-11-24T08:20:13.319Z,728
2016-11-24T08:21:26.857Z,812
2016-11-24T08:22:39.863Z,896
2016-11-24T08:23:53.308Z,988
2016-11-24T08:25:05.944Z,1068
2016-11-24T08:26:18.922Z,1164
2016-11-24T08:27:32.554Z,1264
2016-11-24T08:28:45.042Z,1364
2016-11-24T08:29:57.530Z,1472
2016-11-24T08:31:11.104Z,1580
2016-11-24T08:32:24.175Z,1668
2016-11-24T08:33:36.652Z,1764
2016-11-24T08:34:49.652Z,1864
2016-11-24T08:36:02.812Z,1980
2016-11-24T08:37:15.212Z,2128
2016-11-24T08:38:27.678Z,2316
2016-11-24T08:39:40.660Z,2496
2016-11-24T08:40:53.668Z,2668
2016-11-24T08:42:05.549Z,2880
2016-11-24T08:43:18.701Z,3088
2016-11-24T08:44:31.189Z,3284
2016-11-24T08:45:44.698Z,3484
2016-11-24T08:46:57.778Z,3724
2016-11-24T08:48:09.160Z,3940
2016-11-24T08:49:22.116Z,4124
2016-11-24T08:50:35.631Z,4344
2016-11-24T08:51:49.152Z,4576
2016-11-24T08:53:01.591Z,4780
2016-11-24T08:54:14.575Z,5164
2016-11-24T08:55:28.089Z,5420
2016-11-24T08:56:41.042Z,5524
2016-11-24T08:57:54.112Z,5580
2016-11-24T08:59:06.531Z,5276
2016-11-24T09:00:20.050Z,5916
2016-11-24T09:01:33.570Z,6104
2016-11-24T09:02:45.481Z,5700
2016-11-24T09:03:59.049Z,6464
2016-11-24T09:05:11.573Z,6184
2016-11-24T09:06:24.157Z,6244
2016-11-24T09:07:37.150Z,7752
2016-11-24T09:08:49.784Z,8220
2016-11-24T09:10:02.270Z,8100
2016-11-24T09:11:15.283Z,8604
2016-11-24T09:12:28.781Z,9516
2016-11-24T09:13:41.573Z,9836
2016-11-24T09:14:54.600Z,10212
2016-11-24T09:16:07.036Z,10344
2016-11-24T09:17:19.497Z,10328
2016-11-24T09:18:32.268Z,10536
2016-11-24T09:19:45.485Z,10948
2016-11-24T09:20:58.986Z,11088
2016-11-24T09:22:12.019Z,10888
2016-11-24T09:23:25.537Z,10980
2016-11-24T09:24:38.125Z,11244
2016-11-24T09:25:51.594Z,11780
2016-11-24T09:27:04.111Z,12184
2016-11-24T09:28:17.133Z,12196
2016-11-24T09:29:29.037Z,12224
2016-11-24T09:30:41.218Z,12472
2016-11-24T09:31:53.802Z,12060
2016-11-24T09:33:05.876Z,11168
2016-11-24T09:34:18.879Z,11996
2016-11-24T09:35:32.115Z,12280
2016-11-24T09:36:44.669Z,12276
2016-11-24T09:37:57.807Z,13248
2016-11-24T09:39:41.931Z,12968
2016-11-24T09:40:54.649Z,11148
2016-11-24T09:42:07.126Z,13988
2016-11-24T09:43:20.155Z,14448
2016-11-24T09:44:33.702Z,14544
2016-11-24T09:45:47.166Z,14440
2016-11-24T09:47:00.661Z,14428
2016-11-24T09:48:13.603Z,14712
2016-11-24T09:49:25.576Z,14792
2016-11-24T09:50:39.202Z,15292
2016-11-24T09:51:51.770Z,15692
2016-11-24T09:53:04.848Z,15960
2016-11-24T09:54:16.821Z,15888
2016-11-24T09:55:30.444Z,16300
2016-11-24T09:56:43.984Z,16272
2016-11-24T09:57:56.489Z,16772
2016-11-24T09:59:09.549Z,16572
2016-11-24T10:00:22.541Z,16384
2016-11-24T10:01:35.576Z,16544
2016-11-24T10:02:48.712Z,16672
2016-11-24T10:04:00.729Z,17568
2016-11-24T10:05:12.124Z,18048
2016-11-24T10:06:55.703Z,17856
2016-11-24T10:08:08.828Z,18272
2016-11-24T10:09:21.854Z,18176
2016-11-24T10:10:35.288Z,18624
2016-11-24T10:11:48.944Z,19296
2016-11-24T10:13:02.571Z,19488
2016-11-24T10:14:15.699Z,19744
2016-11-24T10:15:28.890Z,19584
2016-11-24T10:16:41.479Z,20160
2016-11-24T10:17:53.992Z,20128
2016-11-24T10:19:07.579Z,19264
2016-11-24T10:20:21.169Z,20576
2016-11-24T10:21:34.353Z,21344
2016-11-24T10:22:47.873Z,21888
2016-11-24T10:24:01.520Z,21984
2016-11-24T10:25:14.805Z,22656
2016-11-24T10:26:27.901Z,23008
2016-11-24T10:27:41.405Z,23232
2016-11-24T10:28:53.883Z,22560
2016-11-24T10:30:06.662Z,21088
2016-11-24T10:31:20.448Z,19648
2016-11-24T10:32:33.488Z,18528
2016-11-24T10:33:46.462Z,16616
2016-11-24T10:35:00.179Z,23136
2016-11-24T10:36:13.395Z,23104
2016-11-24T10:37:27.053Z,22464
2016-11-24T10:38:40.085Z,24608
2016-11-24T10:39:53.143Z,19520
2016-11-24T10:41:05.957Z,25024
2016-11-24T10:42:19.025Z,24992
2016-11-24T10:43:31.013Z,26400
2016-11-24T10:44:44.528Z,27072
2016-11-24T10:45:56.538Z,26592
2016-11-24T10:47:09.231Z,26976
2016-11-24T10:48:22.844Z,26240
2016-11-24T10:49:35.306Z,25024
2016-11-24T10:50:48.332Z,25472
2016-11-24T10:52:01.188Z,21600
2016-11-24T10:53:14.748Z,18848
2016-11-24T10:54:28.227Z,17952
2016-11-24T10:55:41.252Z,18528
2016-11-24T10:56:54.330Z,15900
2016-11-24T10:58:07.847Z,14948
2016-11-24T10:59:20.866Z,22528
2016-11-24T11:00:33.881Z,15244
2016-11-24T11:01:47.447Z,23360
2016-11-24T11:03:00.087Z,24864
2016-11-24T11:04:12.553Z,24192
2016-11-24T11:05:26.084Z,23616
2016-11-24T11:06:38.522Z,23680
2016-11-24T11:07:50.107Z,24672
2016-11-24T11:09:03.624Z,24384
2016-11-24T11:10:17.595Z,24480
2016-11-24T11:11:31.376Z,24480
2016-11-24T11:12:44.390Z,24736
2016-11-24T11:13:57.079Z,24736
2016-11-24T11:15:10.154Z,25472
2016-11-24T11:16:23.671Z,25344
2016-11-24T11:17:37.234Z,25920
2016-11-24T11:18:50.861Z,24448
2016-11-24T11:20:03.850Z,24480
2016-11-24T11:21:17.016Z,26080
2016-11-24T11:22:30.053Z,26784
2016-11-24T11:23:42.561Z,25408
2016-11-24T11:24:55.349Z,24704
2016-11-24T11:26:08.416Z,22272
2016-11-24T11:27:21.972Z,24704
2016-11-24T11:28:34.423Z,23424
2016-11-24T11:29:48.013Z,23808
2016-11-24T11:31:00.480Z,25440
2016-11-24T11:32:13.031Z,26752
2016-11-24T11:33:26.031Z,21600
2016-11-24T11:34:39.022Z,17736
2016-11-24T11:35:52.186Z,29664
2016-11-24T11:37:05.737Z,32416
2016-11-24T11:38:18.360Z,33280
2016-11-24T11:39:31.334Z,33504
2016-11-24T11:40:44.456Z,30592
2016-11-24T11:41:58.071Z,25312
2016-11-24T11:43:11.572Z,28256
2016-11-24T11:44:25.180Z,31264
2016-11-24T11:45:38.199Z,31552
2016-11-24T11:46:50.727Z,26784
2016-11-24T11:48:04.008Z,29344
2016-11-24T11:49:16.562Z,30144
2016-11-24T11:50:30.193Z,32128
2016-11-24T11:51:42.899Z,32192
2016-11-24T11:52:55.435Z,32032
2016-11-24T11:54:07.859Z,31840
2016-11-24T11:55:21.578Z,30848
2016-11-24T11:56:35.174Z,31616
2016-11-24T11:57:48.265Z,31488
2016-11-24T11:59:02.085Z,28640
2016-11-24T12:00:15.628Z,28896
2016-11-24T12:01:28.102Z,19680
2016-11-24T12:02:41.282Z,29984
2016-11-24T12:03:56.243Z,31328
2016-11-24T12:05:08.706Z,31168
2016-11-24T12:06:20.677Z,22272
2016-11-24T12:07:34.247Z,32032
2016-11-24T12:08:46.872Z,31072
2016-11-24T12:09:59.316Z,30592
2016-11-24T12:11:12.605Z,29920
2016-11-24T12:12:26.190Z,30400
2016-11-24T12:13:38.700Z,29440
2016-11-24T12:14:51.238Z,29536
2016-11-24T12:16:04.814Z,29536
2016-11-24T12:17:18.404Z,30048
2016-11-24T12:18:31.366Z,29312
2016-11-24T12:19:45.078Z,28736
2016-11-24T12:20:58.046Z,30080
2016-11-24T12:22:10.257Z,24128
2016-11-24T12:23:23.264Z,31840
2016-11-24T12:24:36.231Z,32224
2016-11-24T12:25:49.804Z,31168
2016-11-24T12:27:03.384Z,29504
2016-11-24T12:28:15.928Z,30272
2016-11-24T12:29:59.789Z,30144
2016-11-24T12:31:12.790Z,30272
2016-11-24T12:32:25.808Z,29344
2016-11-24T12:33:37.819Z,29760
2016-11-24T12:34:50.282Z,29696
2016-11-24T12:36:03.972Z,30016
2016-11-24T12:37:17.559Z,30464
2016-11-24T12:38:31.094Z,30432
2016-11-24T12:39:43.481Z,29472
2016-11-24T12:40:56.651Z,28896
2016-11-24T12:42:08.652Z,29696
2016-11-24T12:43:22.251Z,29440
2016-11-24T12:44:35.218Z,30336
2016-11-24T12:45:47.666Z,30912
2016-11-24T12:47:00.817Z,29952
2016-11-24T12:48:13.907Z,29504
2016-11-24T12:49:26.911Z,29504
2016-11-24T12:50:39.383Z,29664
2016-11-24T12:53:36.585Z,29280
2016-11-24T12:54:49.026Z,28992
2016-11-24T12:56:02.076Z,28352
2016-11-24T12:57:15.203Z,28288
2016-11-24T12:58:28.181Z,27616
2016-11-24T12:59:40.128Z,24160
2016-11-24T13:00:53.191Z,27840
2016-11-24T13:02:06.218Z,25504
2016-11-24T13:03:18.812Z,26688
2016-11-24T13:04:32.300Z,26336
2016-11-24T13:05:43.177Z,26880
2016-11-24T13:06:56.208Z,26816
2016-11-24T13:08:09.178Z,25984
2016-11-24T13:09:22.645Z,26304
2016-11-24T13:10:36.154Z,26720
2016-11-24T13:11:49.141Z,27104
2016-11-24T13:13:01.068Z,26400
2016-11-24T13:14:14.033Z,26304
2016-11-24T13:15:27.546Z,26240
2016-11-24T13:16:39.992Z,25952
2016-11-24T13:17:52.957Z,26304
2016-11-24T13:19:06.592Z,26272
2016-11-24T13:22:03.701Z,26208
2016-11-24T13:23:17.594Z,25856
2016-11-24T13:24:31.530Z,16396
2016-11-24T13:25:44.600Z,20960
2016-11-24T13:26:57.092Z,25344
2016-11-24T13:28:10.623Z,25248
2016-11-24T13:29:23.760Z,24864
2016-11-24T13:30:36.809Z,24704
2016-11-24T13:31:50.323Z,24736
2016-11-24T13:33:03.584Z,17076
2016-11-24T13:34:16.970Z,21568
2016-11-24T13:35:30.309Z,25472
2016-11-24T13:36:43.814Z,24864
2016-11-24T13:37:56.803Z,23872
2016-11-24T13:39:10.010Z,15916
2016-11-24T13:40:23.628Z,24672
2016-11-24T13:41:36.267Z,25280
2016-11-24T13:42:49.550Z,24576
2016-11-24T13:44:02.562Z,24320
2016-11-24T13:45:48.785Z,24544
2016-11-24T13:47:01.234Z,24768
2016-11-24T13:48:14.906Z,23968
2016-11-24T13:49:28.573Z,23776
2016-11-24T13:50:41.541Z,23424
2016-11-24T13:51:53.432Z,23232
2016-11-24T13:53:06.503Z,22976
2016-11-24T13:54:18.511Z,22624
2016-11-24T13:55:32.490Z,22688
2016-11-24T13:56:46.939Z,22688
2016-11-24T13:57:59.890Z,22656
2016-11-24T13:59:13.600Z,22528
2016-11-24T14:00:57.182Z,22560
2016-11-24T14:02:10.267Z,22464
2016-11-24T14:03:23.250Z,22592
2016-11-24T14:04:35.861Z,22528
2016-11-24T14:05:49.403Z,22592
2016-11-24T14:07:02.706Z,22592
2016-11-24T14:08:14.634Z,22496
2016-11-24T14:09:27.182Z,22304
2016-11-24T14:11:11.249Z,22688
2016-11-24T14:12:24.406Z,22976
2016-11-24T14:13:37.388Z,23168
2016-11-24T14:14:49.908Z,22912
2016-11-24T14:16:02.756Z,15816
2016-11-24T14:17:15.945Z,18196
2016-11-24T14:18:29.593Z,24032
2016-11-24T14:19:42.648Z,23904
2016-11-24T14:20:55.221Z,23968
2016-11-24T14:22:09.033Z,21664
2016-11-24T14:23:22.594Z,23584
2016-11-24T14:24:34.529Z,23968
2016-11-24T14:25:45.914Z,23296
2016-11-24T14:27:30.039Z,23360
2016-11-24T14:28:42.567Z,23680
2016-11-24T14:29:56.161Z,23040
2016-11-24T14:31:09.114Z,23552
2016-11-24T14:32:22.097Z,24288
2016-11-24T14:33:35.219Z,25024
2016-11-24T14:34:48.192Z,25312
2016-11-24T14:36:01.382Z,25120
2016-11-24T14:37:14.465Z,25216
2016-11-24T14:38:27.555Z,25536
2016-11-24T14:39:40.654Z,26112
2016-11-24T14:40:53.091Z,26656
2016-11-24T14:42:06.036Z,27104
2016-11-24T14:43:19.616Z,27296
2016-11-24T14:44:33.381Z,28032
2016-11-24T14:45:46.353Z,29248
2016-11-24T14:46:59.818Z,29984
2016-11-24T14:48:13.912Z,29760
2016-11-24T14:49:26.942Z,29664
2016-11-24T14:50:40.062Z,30240
2016-11-24T14:51:53.108Z,30176
2016-11-24T14:53:07.040Z,31392
2016-11-24T14:54:20.572Z,32224
2016-11-24T14:55:32.989Z,32768
2016-11-24T14:56:46.001Z,34112
2016-11-24T14:57:58.524Z,34432
2016-11-24T14:59:10.992Z,34304
2016-11-24T15:00:23.479Z,33632
2016-11-24T15:01:36.022Z,33184
2016-11-24T15:02:49.108Z,30688
2016-11-24T15:04:01.563Z,31872
2016-11-24T15:05:14.048Z,33248
2016-11-24T15:06:27.027Z,33792
2016-11-24T15:07:40.014Z,35008
2016-11-24T15:08:53.574Z,35808
2016-11-24T15:10:07.144Z,37536
2016-11-24T15:11:20.803Z,39616
2016-11-24T15:12:33.912Z,40576
2016-11-24T15:13:45.899Z,40608
2016-11-24T15:14:58.939Z,42176
2016-11-24T15:16:13.084Z,42752
2016-11-24T15:17:26.177Z,42656
2016-11-24T15:18:39.209Z,42240
2016-11-24T15:19:52.713Z,42144
2016-11-24T15:21:05.171Z,42880
2016-11-24T15:22:18.198Z,42784
2016-11-24T15:23:31.277Z,42464
2016-11-24T15:24:44.865Z,43808
2016-11-24T15:27:42.458Z,45504
2016-11-24T15:28:56.032Z,47456
2016-11-24T15:30:09.590Z,47264
2016-11-24T15:31:22.606Z,47232
2016-11-24T15:32:35.633Z,49056
2016-11-24T15:33:48.741Z,49024
2016-11-24T15:35:01.211Z,47968
2016-11-24T15:36:13.696Z,48384
2016-11-24T15:37:27.243Z,49152
2016-11-24T15:38:39.666Z,49344
2016-11-24T15:39:52.716Z,48928
2016-11-24T15:41:05.736Z,49984
2016-11-24T15:42:18.183Z,50144
2016-11-24T15:43:31.194Z,48416
2016-11-24T15:44:44.169Z,48512
2016-11-24T15:45:57.152Z,48736
2016-11-24T15:47:09.610Z,48608
2016-11-24T15:48:22.069Z,49568
2016-11-24T15:49:35.665Z,49344
2016-11-24T15:50:49.305Z,48480
2016-11-24T15:52:02.301Z,48768
2016-11-24T15:53:14.751Z,48480
2016-11-24T15:54:28.234Z,47008
2016-11-24T15:55:41.779Z,41600
2016-11-24T15:56:54.732Z,44160
2016-11-24T15:58:07.226Z,45312
2016-11-24T15:59:20.229Z,42976
2016-11-24T16:01:04.405Z,36480
2016-11-24T16:02:16.853Z,35968
2016-11-24T16:03:29.863Z,46688
2016-11-24T16:04:42.967Z,43040
2016-11-24T16:05:55.926Z,45600
2016-11-24T16:07:08.398Z,47360
2016-11-24T16:08:21.390Z,42816
2016-11-24T16:09:33.790Z,42432
2016-11-24T16:10:46.745Z,45152
2016-11-24T16:11:59.884Z,46976
2016-11-24T16:13:12.399Z,44480
2016-11-24T16:14:24.907Z,43744
2016-11-24T16:15:37.931Z,45952
2016-11-24T16:16:49.835Z,44128
2016-11-24T16:18:02.883Z,42688
2016-11-24T16:19:15.882Z,44448
2016-11-24T16:20:29.330Z,46048
2016-11-24T16:21:42.319Z,48992
2016-11-24T16:22:55.967Z,47712
2016-11-24T16:24:08.434Z,48224
2016-11-24T16:25:20.323Z,46944
2016-11-24T16:26:34.947Z,47744
2016-11-24T16:27:48.024Z,48768
2016-11-24T16:29:01.506Z,50080
2016-11-24T16:30:13.976Z,52192
2016-11-24T16:31:26.478Z,55168
2016-11-24T16:32:39.429Z,57728
2016-11-24T16:33:51.973Z,56640
2016-11-24T16:35:36.131Z,60288
2016-11-24T16:36:48.072Z,56704
2016-11-24T16:38:00.557Z,68736
2016-11-24T16:39:13.131Z,65376
2016-11-24T16:40:25.635Z,64864
2016-11-24T16:41:38.635Z,68576
2016-11-24T16:42:51.622Z,65696
2016-11-24T16:44:05.140Z,61280
2016-11-24T16:45:17.599Z,64704
2016-11-24T16:46:30.586Z,68352
2016-11-24T16:47:44.082Z,65120
2016-11-24T16:48:56.064Z,69728
2016-11-24T16:50:09.746Z,74848
2016-11-24T16:51:22.199Z,77536
2016-11-24T16:52:35.160Z,78720
2016-11-24T16:53:48.104Z,77248
2016-11-24T16:55:00.582Z,79296
2016-11-24T16:56:14.174Z,74688
2016-11-24T16:57:27.281Z,70304
2016-11-24T16:58:40.277Z,71360
2016-11-24T16:59:53.245Z,77056
2016-11-24T17:01:06.358Z,78688
2016-11-24T17:02:49.412Z,78272
2016-11-24T17:04:02.924Z,78464
2016-11-24T17:05:15.962Z,81152
2016-11-24T17:06:28.513Z,79200
2016-11-24T17:07:41.975Z,68416
2016-11-24T17:08:54.391Z,71488
2016-11-24T17:10:08.015Z,67744
2016-11-24T17:11:19.911Z,70848
2016-11-24T17:12:32.391Z,84672
2016-11-24T17:13:44.862Z,83200